Airfield :
LOGIN :

Register | Disclaimer

   EN    FR    IT 

 










Legend :    VFR   Marginal VFR   IFR   Intensive IFR   Very Intensive IFR
Visi :
Ceiling :
>= 8 km
>= 3000ft
5 to 8 km
1000 to 3000 ft
1500m to 5 km
500 to 1000 ft
800 to 1500m
200 to 500 ft
< 800m
< 200 ft
Symbols :   Thunderstorms  Fog  Heavy snow  Heavy precipitations  Wind > 20 kt
SIGMETs :     Misc.  Thunderstorms  Icing  Turbulence  Mountain Waves  Volcanic Ashes






- Airport Elevation : 359 ft
- IATA code : BVA


LFOB - Beauvais

CURRENT METAR :
  • 101330Z AUTO 20013KT CAVOK 07/03 Q1022

EXPIRED METARs :
  • 101300Z AUTO 19011KT 160V220 CAVOK 07/03 Q1022
  • 101230Z AUTO 19014KT CAVOK 07/03 Q1023
  • 101200Z AUTO 20011KT CAVOK 07/03 Q1024
  • 101130Z AUTO 17009KT CAVOK 05/02 Q1024
  • 101100Z AUTO 18008KT CAVOK 05/02 Q1024

TAF TAF LFOB
Valid from the 10 at 00:00 until the 11 at 00:00 UTC


092300Z 1000/1024 VRB02KT CAVOK
BECMG 1007/1009 10010KT
BECMG 1012/1014 18017G27KT
BECMG 1016/1018 BKN011 OVC030
TEMPO 1018/1024 RA OVC008
ATIS : +33 3 44 11 49 28



MET'MAP, your aeronautical weather chart ! - Copyright ORBIFLY December 2007 - Disclaimer

ORBIFLY MET'MAP TEAM :

Programming & Development : Alexandra Zaïnal
Concept & original design : Baudouin d'Aumeries
Assistance for programming : Marc-Olivier Méhu
Technical & hardware support : Manuel Goepfert

Contact : metmap@orbifly.com




SOURCES & CREDITS :

   NOAA